Red Deer Regional Airport
CYQF : rendu visible

Aérodrome :











RETROUVEZ-NOUS SUR...

 
LOGIN :

S'inscrire | Disclaimer

   EN    FR    IT 

 









Légende :    VFR   VFR Marginal   IFR   IFR Intensif   IFR Très Intensif
Visi : 
Plafond : 
>= 8 km
>= 3000ft
5 à 8 km
1000 à 3000 ft
1500m à 5 km
500 à 1000 ft
800 à 1500m
200 à 500 ft
< 800m
< 200 ft
Symboles :   Orages  Brouillard  Fortes neiges  Fortes précipitations  Vent > 20 kt






- Altitude de l'aérodrome : 2968 ft
- Code IATA : YQF


CYQF - Red Deer Regional

DERNIER METAR :
  • 221600Z CCA 28004KT 15SM FEW018 SCT120 BKN170 M03/M09 A2967 RMK SC2ACC2AC3 SLP089

METARs EXPIRÉS :
  • 221500Z 32005KT 270V350 15SM FEW120 BKN170 M05/M10 A2965 RMK AC2AC5 PRESRR SLP088
  • 221400Z 23005KT 200V350 15SM SCT100 BKN200 M04/M10 A2963 RMK AC4CI3 SLP079

TAF TAF CYQF
Valide du 22 à 12h jusqu'au 23 à 00h UTC


221138Z 2212/2224 20008KT P6SM FEW120 BKN240
BECMG 2215/2217 34014KT BKN060 OVC120
FM221700 34014KT P6SM BKN060 OVC120
TEMPO 2217/2220 21/2SM -SHSN OVC040
FM222000 34012KT P6SM SCT080
BECMG 2222/2224 VRB03KT RMK NXT FCST BY 221800Z



MET'MAP, la Météo Aéronautique d'un coup d'oeil ! - Copyright ORBIFLY Décembre 2007 - Disclaimer

ORBIFLY MET'MAP TEAM :

Programmation & Développement : Alexandra Zaïnal
Sur une idée originale de : Baudouin d'Aumeries
Assistance à la programmation : Marc-Olivier Méhu
Soutien technique & logistique : Manuel Goepfert

Contact : metmap@orbifly.com




SOURCES & CREDITS :

   NOAA       Earth
Advisory